This is the latest recevied weather packets stored in our database for station/object KC5TIL. If no packets are shown the sender has not sent any weather packets the latest 10 day(s).
| Time | Temp. | Humidity | Pressure | Rain* | Wind** | Luminosity | Snow |
|---|---|---|---|---|---|---|---|
| 1777477712 | 16.11° C | 79% | 1017.9 hPa | 0 mm | - | 50 W/m² | - |
| 1777477410 | 16.11° C | 78% | 1017.4 hPa | 0 mm | - | 59 W/m² | - |
| 1777477106 | 16.11° C | 77% | 1017.6 hPa | 0 mm | - | 53 W/m² | - |
| 1777476804 | 16.11° C | 77% | 1017.3 hPa | 0 mm | - | 72 W/m² | - |
| 1777476501 | 16.11° C | 78% | 1017.3 hPa | 0 mm | - | 52 W/m² | - |
| 1777476197 | 16.11° C | 77% | 1017.2 hPa | 0 mm | - | 83 W/m² | - |
| 1777475893 | 16.11° C | 77% | 1017.9 hPa | 0 mm | - | 50 W/m² | - |
| 1777475589 | 16.11° C | 77% | 1017.4 hPa | 0 mm | - | 75 W/m² | - |
| 1777475285 | 16.11° C | 77% | 1017.6 hPa | 0 mm | - | 61 W/m² | - |
| 1777474981 | 16.11° C | 76% | 1017.8 hPa | 0 mm | - | 39 W/m² | - |
| 1777474677 | 16.11° C | 76% | 1017 hPa | 0 mm | - | 82 W/m² | - |
| 1777474374 | 16.67° C | 76% | 1017.9 hPa | 0 mm | - | 49 W/m² | - |
| 1777474070 | 16.11° C | 77% | 1017.5 hPa | 0 mm | - | 78 W/m² | - |
| 1777473768 | 16.11° C | 77% | 1017.6 hPa | 0 mm | - | 35 W/m² | - |
| 1777473464 | 16.11° C | 77% | 1017.4 hPa | 0 mm | - | 39 W/m² | - |
| 1777473160 | 16.11° C | 78% | 1017.3 hPa | 0 mm | - | 43 W/m² | - |
| 1777472858 | 16.11° C | 77% | 1017.1 hPa | 0 mm | - | 54 W/m² | - |
| 1777472553 | 16.11° C | 77% | 1016.9 hPa | 0 mm | - | 48 W/m² | - |
| 1777472250 | 16.11° C | 77% | 1017.1 hPa | 0 mm | - | 35 W/m² | - |
| 1777471946 | 16.11° C | 77% | 1017.2 hPa | 0 mm | - | 21 W/m² | - |
| 1777471644 | 16.11° C | 77% | 1017.1 hPa | 0 mm | - | 29 W/m² | - |
| 1777471340 | 16.11° C | 77% | 1016.9 hPa | 0 mm | - | 28 W/m² | - |
| 1777471036 | 16.11° C | 77% | 1016.8 hPa | 0 mm | - | 37 W/m² | - |
| 1777470733 | 16.11° C | 77% | 1016.8 hPa | 0 mm | - | 29 W/m² | - |
| 1777470430 | 16.11° C | 77% | 1016.8 hPa | 0 mm | - | 40 W/m² | - |
* Rain latest hour (hover to see other rain measurements)
** Current wind speed in m/s (hover to see current wind gust speed)